• Join FlightAware (Why Join?)
  • Login
  • US Flag 
02:10AM EST


 

Airport Tracker/Info


-or-


 

Live Flight TrackerFlight Track Log ✈ AAL448 ✈ 29-Apr-2013 ✈ KLAX - KLAS

Flight Track Log - Related Links

Times and Time Zones

All times are in EDT time to prevent confusion due to time zone crossing. See the AAL448 flight status page for this flight to view local times or setup timezone preferences in your user account.

Time Position Orientation Groundspeed Altitude Reporting Facility
EDT Latitude Longitude Course Direction KTS MPH feet Rate Location/Type
12:52PM 33.9340 -118.4420 263° West 191 220 1,900  Level FlightAware
12:53PM 33.9330 -118.4540 264° West 212 244 2,100 1,650 Climbing FlightAware
12:53PM 33.9220 -118.4920 251° West 253 291 3,000 2,900 Climbing FlightAware
12:54PM 33.9060 -118.5290 242° Southwest 242 278 5,000 3,733 Climbing FlightAware
12:54PM 33.8920 -118.5400 213° Southwest 245 282 5,800 2,800 Climbing FlightAware
12:54PM 33.8800 -118.5430 192° South 247 284 6,400 2,800 Climbing FlightAware
12:55PM 33.8450 -118.5220 154° Southeast 268 308 7,900 3,000 Climbing FlightAware
12:55PM 33.8390 -118.5070 116° Southeast 274 315 8,400 2,880 Climbing FlightAware
12:55PM 33.8360 -118.4840 99° East 284 327 9,100 2,400 Climbing FlightAware
12:55PM 33.8470 -118.4490 69° East 298 343 10,000 2,250 Climbing FlightAware
12:56PM 33.8660 -118.4330 35° Northeast 306 352 10,600 1,800 Climbing FlightAware
12:56PM 33.8850 -118.4280 12° North 321 369 10,900 2,000 Climbing FlightAware
12:57PM 33.9510 -118.4020 18° North 348 400 12,600 2,894 Climbing FlightAware
12:57PM 33.9880 -118.3370 56° Northeast 348 400 15,000 3,225 Climbing FlightAware
12:58PM 34.0240 -118.2730 56° Northeast 359 413 16,900 2,753 Climbing FlightAware
12:59PM 34.0660 -118.1980 56° Northeast 373 429 18,900 2,753 Climbing FlightAware
12:59PM 34.1050 -118.1290 56° Northeast 379 436 20,800 2,682 Climbing FlightAware
01:00PM 34.1520 -118.0470 55° Northeast 391 450 22,700 2,400 Climbing FlightAware
01:01PM 34.1820 -117.9930 56° Northeast 397 457 23,800 2,160 Climbing FlightAware
01:01PM 34.2290 -117.9110 55° Northeast 405 466 25,400 2,118 Climbing FlightAware
01:02PM 34.2730 -117.8380 54° Northeast 412 474 26,800 1,129 Climbing FlightAware
01:03PM 34.3260 -117.7490 54° Northeast 425 489 27,000 141 Climbing FlightAware
01:04PM 34.3710 -117.6710 55° Northeast 426 490 27,000  Level FlightAware
01:04PM 34.4170 -117.5930 54° Northeast 427 491 27,000  Level FlightAware
01:05PM 34.4670 -117.5080 54° Northeast 428 493 27,000  Level FlightAware
01:06PM 34.5120 -117.4290 55° Northeast 428 493 27,000  Level FlightAware
01:06PM 34.5640 -117.3400 55° Northeast 426 490 27,000  Level FlightAware
01:07PM 34.6110 -117.2600 54° Northeast 426 490 27,000  Level FlightAware
01:08PM 34.6600 -117.1750 55° Northeast 425 489 27,000  Level FlightAware
01:08PM 34.7050 -117.0980 55° Northeast 425 489 27,000  Level FlightAware
01:09PM 34.7510 -117.0180 55° Northeast 424 488 27,000  Level FlightAware
01:10PM 34.8100 -116.9160 55° Northeast 424 488 27,000  Level FlightAware
01:11PM 34.8610 -116.8270 55° Northeast 421 484 27,000  Level FlightAware
01:11PM 34.9050 -116.7500 55° Northeast 420 483 27,000 -540 Level FlightAware
01:12PM 34.9720 -116.6320 55° Northeast 406 467 26,100 -960 Descending FlightAware
01:13PM 35.0150 -116.5570 55° Northeast 403 464 25,400 -1,059 Descending FlightAware
01:14PM 35.0640 -116.4720 55° Northeast 402 463 24,600 -988 Descending FlightAware
01:15PM 35.1080 -116.3970 54° Northeast 404 465 24,000 -1,275 Descending FlightAware
01:15PM 35.1590 -116.3330 46° Northeast 398 458 22,900 -1,553 Descending FlightAware
01:16PM 35.2150 -116.2630 46° Northeast 387 445 21,800 -1,412 Descending FlightAware
01:17PM 35.2640 -116.2010 46° Northeast 382 440 20,900 -1,412 Descending FlightAware
01:17PM 35.3200 -116.1310 46° Northeast 377 434 19,800 -1,412 Descending FlightAware
01:18PM 35.3700 -116.0680 46° Northeast 372 428 18,900 -1,350 Descending FlightAware
01:19PM 35.4170 -116.0080 46° Northeast 363 418 18,000 -1,271 Descending FlightAware
01:19PM 35.4670 -115.9450 46° Northeast 362 417 17,100 -1,271 Descending FlightAware
01:20PM 35.5150 -115.8840 46° Northeast 361 415 16,200 -1,350 Descending FlightAware
01:21PM 35.5610 -115.8260 46° Northeast 347 399 15,300 -1,341 Descending FlightAware
01:22PM 35.6100 -115.7630 46° Northeast 330 380 14,300 -1,271 Descending FlightAware
01:22PM 35.6510 -115.7110 46° Northeast 322 371 13,500 -847 Descending FlightAware
01:23PM 35.6970 -115.6520 46° Northeast 315 362 13,100 -282 Descending FlightAware
01:24PM 35.7370 -115.6010 46° Northeast 313 360 13,100  Level FlightAware
01:24PM 35.7730 -115.5750 30° Northeast 315 362 13,100  Level FlightAware
01:25PM 35.8310 -115.5710 North 312 359 13,100  Level FlightAware
01:25PM 35.8900 -115.5680 North 311 358 13,100 -71 Level FlightAware
01:26PM 35.9550 -115.5650 North 310 357 13,000 -494 Descending FlightAware
01:27PM 36.0110 -115.5750 352° North 307 353 12,400 -947 Descending FlightAware
01:28PM 36.0830 -115.5620 North 312 359 11,500 -1,029 Descending FlightAware
01:28PM 36.0940 -115.5380 60° Northeast 309 356 11,200 -960 Descending FlightAware
01:28PM 36.0960 -115.5200 82° East 308 354 11,100 -200 Descending FlightAware
01:29PM 36.0880 -115.4870 107° East 292 336 11,100  Level FlightAware
01:29PM 36.0620 -115.4320 120° Southeast 280 322 11,100  Level FlightAware
01:30PM 36.0320 -115.3720 122° Southeast 271 312 11,100 -494 Level FlightAware
01:31PM 36.0260 -115.3110 97° East 270 311 10,400 -1,114 Descending FlightAware
01:31PM 36.0230 -115.2660 95° East 266 306 9,800 -1,091 Descending FlightAware
01:32PM 36.0200 -115.2260 95° East 266 306 9,400 -982 Descending FlightAware
01:32PM 36.0170 -115.1810 95° East 260 299 8,900 -873 Descending FlightAware
01:32PM 36.0150 -115.1460 94° East 253 291 8,600 -764 Descending FlightAware
01:33PM 36.0120 -115.1030 95° East 246 283 8,200 -545 Descending FlightAware
01:33PM 36.0100 -115.0690 94° East 219 252 8,100 -545 Descending FlightAware
01:34PM 36.0080 -115.0330 94° East 210 242 7,700 -900 Descending FlightAware
01:34PM 36.0050 -114.9970 96° East 207 238 7,200 -933 Descending FlightAware
01:35PM 36.0040 -114.9810 94° East 204 235 7,000 -857 Descending FlightAware
01:35PM 36.0030 -114.9600 93° East 201 231 6,700 -1,050 Descending FlightAware
01:35PM 36.0110 -114.9380 66° East 196 226 6,300 -1,029 Descending FlightAware
01:36PM 36.0220 -114.9320 24° Northeast 193 222 6,100 -1,050 Descending FlightAware
01:36PM 36.0450 -114.9340 356° North 181 208 5,600 -1,200 Descending FlightAware
01:36PM 36.0560 -114.9380 344° North 178 205 5,300 -1,400 Descending FlightAware
01:36PM 36.0640 -114.9520 305° West 186 214 4,900 -1,200 Descending FlightAware
01:37PM 36.0720 -114.9820 288° West 181 208 4,400 -1,050 Descending FlightAware
01:37PM 36.0730 -114.9930 276° West 181 208 4,200 -1,050 Descending FlightAware
01:38PM 36.0740 -115.0220 272° West 171 197 3,700 -873 Descending FlightAware
01:38PM 36.0740 -115.0450 270° West 161 185 3,400 -764 Descending FlightAware
01:39PM 36.0740 -115.0720 270° West 160 184 3,000 -800 Descending FlightAware
01:39PM 36.0740 -115.0990 270° West 162 186 2,600 -873 Descending FlightAware
01:39PM 36.0740 -115.1240 270° West 161 185 2,200 -960 Descending FlightAware